Terminal Aerodrome Forecast
Issued by NWS Springfield, MO

Home | Current Version | Previous Version | Text Only | Print | Product List | Glossary On
Versions: 1 2 3 4 5 6 7 8 9 10 11 12 13 14 15 16 17 18 19 20 21 22 23 24 25 26 27 28 29 30 31 32 33 34 35 36 37 38 39 40 41 42
000
FTUS43 KSGF 300238 AAB
TAFSGF
TAF AMD
KSGF 300238Z 3003/3024 09015KT P6SM -TSRA SCT015CB OVC090
      TEMPO 3003/3006 3SM -TSRA BR OVC015CB
     FM300600 14015KT P6SM VCSH OVC015
     FM300900 15015KT P6SM OVC007
     FM301500 18018G25KT P6SM OVC015
     FM301800 20022G32KT P6SM OVC025=

USA.gov is the U.S. government's official web portal to all federal, state and local government web resources and services.